Time;durP1;ratioP1;P1;durP2;ratioP2;P2;SDS_P1;SDS_P2;PMS_P1;PMS_P2;Temp;Humidity;BMP_temperature;BMP_pressure;BME280_temperature;BME280_humidity;BME280_pressure;Samples;Min_cycle;Max_cycle;Signal;HPM_P1;HPM_P2
2023/05/11 00:02:04;;;;;;;7.00;2.90;;;;;;;9.49;47.12;100148.85;218352;1257;139631;-72
2023/05/11 00:07:08;;;;;;;3.60;3.00;;;;;;;9.40;47.18;100147.30;218865;1256;138605;-71
2023/05/11 00:12:13;;;;;;;2.70;1.90;;;;;;;9.36;47.22;100142.38;218423;1255;139252;-71
2023/05/11 00:17:17;;;;;;;2.90;2.60;;;;;;;9.32;47.36;100139.21;219240;1256;138413;-72
2023/05/11 00:22:21;;;;;;;4.70;2.80;;;;;;;9.27;47.35;100142.72;218458;1259;138816;-71
2023/05/11 00:27:25;;;;;;;6.40;4.00;;;;;;;9.24;47.34;100144.83;218978;1257;138896;-70
2023/05/11 00:32:30;;;;;;;2.80;2.60;;;;;;;9.21;47.41;100140.22;218389;1259;139371;-71
2023/05/11 00:37:33;;;;;;;3.00;2.40;;;;;;;9.20;47.37;100143.47;218596;1256;139240;-70
2023/05/11 00:42:35;;;;;;;6.50;3.60;;;;;;;9.13;47.47;100141.20;218012;1257;320849;-70
2023/05/11 00:47:37;;;;;;;5.40;3.60;;;;;;;9.05;47.73;100136.09;218908;1257;139360;-70
2023/05/11 00:52:41;;;;;;;31.20;4.20;;;;;;;8.99;47.74;100138.13;218861;1259;139112;-71
2023/05/11 00:57:43;;;;;;;6.50;2.90;;;;;;;8.98;47.81;100137.80;218670;1257;139985;-69
2023/05/11 01:02:47;;;;;;;2.10;2.00;;;;;;;8.97;47.69;100137.73;219467;1256;139610;-68
2023/05/11 01:08:17;;;;;;;5.50;3.20;;;;;;;8.93;48.02;100132.52;219576;1255;138679;-69
2023/05/11 01:13:47;;;;;;;6.50;3.00;;;;;;;8.88;48.12;100137.83;219140;1256;141254;-68
2023/05/11 01:19:04;;;;;;;6.00;3.40;;;;;;;8.83;48.11;100136.15;218696;1256;138919;-68
2023/05/11 01:24:20;;;;;;;3.00;2.70;;;;;;;8.78;48.01;100132.95;218110;1255;138824;-69
2023/05/11 01:29:46;;;;;;;3.90;3.40;;;;;;;8.73;47.85;100133.77;219101;1256;139538;-68
2023/05/11 01:35:07;;;;;;;5.80;3.10;;;;;;;8.72;47.88;100130.11;219166;1256;138623;-67
2023/05/11 01:40:15;;;;;;;4.80;2.00;;;;;;;8.74;47.89;100126.75;217973;1258;139092;-68
2023/05/11 01:45:21;;;;;;;3.90;3.30;;;;;;;8.74;47.91;100126.06;218610;1256;138830;-68
2023/05/11 01:50:25;;;;;;;3.20;2.70;;;;;;;8.74;47.98;100128.27;218487;1256;139142;-69
2023/05/11 01:55:31;;;;;;;4.80;3.10;;;;;;;8.74;47.94;100124.34;218223;1258;139189;-68
2023/05/11 02:00:36;;;;;;;3.60;2.60;;;;;;;8.73;47.93;100124.10;218239;1257;139819;-68
2023/05/11 02:05:42;;;;;;;4.80;2.80;;;;;;;8.71;47.96;100126.27;218508;1259;139891;-68
2023/05/11 02:10:49;;;;;;;2.90;2.40;;;;;;;8.71;48.06;100126.93;218225;1256;138848;-68
2023/05/11 02:15:57;;;;;;;4.30;2.60;;;;;;;8.68;47.83;100131.73;218093;1257;141950;-69
2023/05/11 02:21:02;;;;;;;2.90;2.40;;;;;;;8.63;48.18;100131.02;218399;1257;139108;-69
2023/05/11 02:26:07;;;;;;;4.60;2.70;;;;;;;8.55;48.17;100135.48;218301;1257;139589;-68
2023/05/11 02:31:24;;;;;;;5.50;2.50;;;;;;;8.51;48.45;100137.19;218675;1256;141366;-67
2023/05/11 02:36:32;;;;;;;2.90;2.40;;;;;;;8.49;48.33;100134.90;217937;1257;139020;-67
2023/05/11 02:41:40;;;;;;;5.70;2.90;;;;;;;8.46;48.48;100133.02;217977;1257;139180;-67
2023/05/11 02:46:47;;;;;;;2.80;2.50;;;;;;;8.43;48.43;100136.63;218165;1255;139378;-65
2023/05/11 02:51:53;;;;;;;4.00;3.30;;;;;;;8.39;48.39;100136.08;219415;1255;139225;-65
2023/05/11 02:56:57;;;;;;;4.70;2.40;;;;;;;8.37;48.54;100142.53;218764;1256;138998;-70
2023/05/11 03:02:02;;;;;;;6.80;3.70;;;;;;;8.37;48.61;100141.35;218637;1255;139244;-69
2023/05/11 03:07:06;;;;;;;5.80;2.50;;;;;;;8.34;48.21;100147.23;220308;1256;159875;-69
2023/05/11 03:12:10;;;;;;;3.60;2.60;;;;;;;8.34;48.54;100151.08;219415;1255;141397;-67
2023/05/11 03:17:15;;;;;;;6.40;2.90;;;;;;;8.36;48.62;100156.27;220324;1256;139357;-67
2023/05/11 03:22:21;;;;;;;3.80;2.70;;;;;;;8.40;48.58;100158.10;218865;1255;139094;-66
2023/05/11 03:27:26;;;;;;;3.70;3.40;;;;;;;8.46;48.31;100154.08;218989;1256;138804;-68
2023/05/11 03:32:29;;;;;;;3.60;2.80;;;;;;;8.59;48.33;100155.60;218542;1256;139979;-68
2023/05/11 03:37:37;;;;;;;4.90;3.50;;;;;;;8.64;48.21;100156.80;217991;1257;139090;-68
2023/05/11 03:42:42;;;;;;;4.40;2.50;;;;;;;8.80;48.34;100157.14;219133;1256;140478;-69
2023/05/11 03:47:48;;;;;;;11.30;3.80;;;;;;;9.18;48.22;100160.71;217895;1256;138790;-71
2023/05/11 03:52:52;;;;;;;7.30;3.90;;;;;;;9.60;47.81;100161.61;219270;1255;139897;-67
2023/05/11 03:57:55;;;;;;;4.80;2.50;;;;;;;9.73;47.45;100164.76;218241;1256;138909;-67
2023/05/11 04:03:05;;;;;;;3.80;3.10;;;;;;;9.77;47.01;100164.99;218833;1256;140813;-68
2023/05/11 04:08:09;;;;;;;3.10;2.60;;;;;;;9.95;46.75;100166.48;218002;1259;140710;-71
2023/05/11 04:13:13;;;;;;;3.20;2.50;;;;;;;10.81;46.16;100167.46;219386;1256;139360;-69
2023/05/11 04:18:16;;;;;;;2.80;2.50;;;;;;;12.47;44.61;100165.55;219109;1254;140591;-66
2023/05/11 04:23:19;;;;;;;4.50;3.30;;;;;;;12.89;43.44;100159.70;219177;1255;139547;-67
2023/05/11 04:28:22;;;;;;;2.80;2.50;;;;;;;13.08;42.82;100162.75;218839;1255;139854;-66
2023/05/11 04:33:25;;;;;;;4.40;2.00;;;;;;;13.12;42.32;100167.06;217700;1257;140062;-66
2023/05/11 04:38:30;;;;;;;11.60;3.40;;;;;;;13.21;42.33;100163.63;218261;1256;140131;-67
2023/05/11 04:43:33;;;;;;;8.70;2.90;;;;;;;13.29;41.68;100161.91;217830;1257;140344;-67
2023/05/11 04:48:35;;;;;;;2.90;2.10;;;;;;;13.14;41.60;100166.39;219088;1256;140791;-66
2023/05/11 04:53:38;;;;;;;4.50;2.40;;;;;;;12.80;41.84;100170.24;220669;1255;140458;-67
2023/05/11 04:58:41;;;;;;;2.30;2.10;;;;;;;12.28;42.24;100170.27;218767;1256;139378;-68
2023/05/11 05:03:47;;;;;;;8.50;2.90;;;;;;;11.98;42.29;100171.81;220658;1256;139974;-71
2023/05/11 05:08:50;;;;;;;4.10;2.90;;;;;;;11.91;42.46;100176.63;219819;1256;140376;-66
2023/05/11 05:13:54;;;;;;;4.20;2.70;;;;;;;12.85;42.02;100173.48;219924;1256;139814;-66
2023/05/11 05:18:56;;;;;;;4.90;2.60;;;;;;;16.14;38.75;100169.99;218535;1256;140173;-67
2023/05/11 05:23:59;;;;;;;4.20;2.20;;;;;;;18.96;36.32;100173.51;218844;1256;138758;-68
2023/05/11 05:29:04;;;;;;;6.70;2.60;;;;;;;21.85;34.21;100173.55;219283;1257;139445;-69
2023/05/11 05:34:08;;;;;;;5.80;2.50;;;;;;;24.26;31.88;100176.71;218530;1255;139059;-66
2023/05/11 05:39:11;;;;;;;4.70;2.70;;;;;;;25.73;29.56;100182.55;219679;1256;139768;-67
2023/05/11 05:44:15;;;;;;;3.80;2.20;;;;;;;25.91;28.21;100184.94;219179;1257;139431;-68
2023/05/11 05:49:18;;;;;;;2.10;2.00;;;;;;;24.65;28.73;100195.70;218044;1256;140116;-65
2023/05/11 05:54:22;;;;;;;5.30;2.50;;;;;;;25.61;27.16;100193.41;217995;1257;140239;-65
2023/05/11 05:59:25;;;;;;;9.40;2.60;;;;;;;24.90;26.59;100201.33;217872;1257;139617;-65
2023/05/11 06:04:29;;;;;;;3.10;2.20;;;;;;;23.12;28.07;100201.22;218091;1257;140805;-67
2023/05/11 06:09:32;;;;;;;7.90;3.00;;;;;;;21.66;29.41;100202.61;218229;1256;140095;-63
2023/05/11 06:14:35;;;;;;;3.60;2.00;;;;;;;20.70;30.07;100202.94;218830;1257;139133;-63
2023/05/11 06:19:39;;;;;;;2.40;2.20;;;;;;;19.83;31.13;100205.44;218201;1256;162085;-64
2023/05/11 06:24:42;;;;;;;8.20;3.60;;;;;;;19.18;31.70;100207.41;218842;1256;140179;-65
2023/05/11 06:29:46;;;;;;;3.40;3.00;;;;;;;18.42;32.74;100210.45;219220;1255;140074;-64
2023/05/11 06:34:49;;;;;;;4.10;2.80;;;;;;;17.71;33.37;100208.06;218623;1256;140397;-65
2023/05/11 06:39:53;;;;;;;6.00;2.50;;;;;;;17.17;34.37;100209.15;219330;1256;139406;-66
2023/05/11 06:44:55;;;;;;;8.40;2.30;;;;;;;17.07;35.13;100207.62;220420;1256;139627;-66
2023/05/11 06:49:59;;;;;;;2.40;2.10;;;;;;;17.54;35.16;100209.90;218791;1256;141716;-70
2023/05/11 06:55:03;;;;;;;2.90;2.40;;;;;;;18.58;35.00;100207.65;218342;1259;139485;-66
2023/05/11 07:00:07;;;;;;;3.00;2.70;;;;;;;19.67;34.30;100204.18;219638;1259;139134;-69
2023/05/11 07:05:11;;;;;;;5.70;3.00;;;;;;;21.23;33.07;100198.36;220860;1255;140407;-69
2023/05/11 07:10:16;;;;;;;3.00;2.70;;;;;;;22.71;32.49;100198.24;218908;1259;139425;-68
2023/05/11 07:15:19;;;;;;;3.90;2.30;;;;;;;23.30;31.22;100193.97;218311;1257;138990;-68
2023/05/11 07:20:22;;;;;;;6.90;2.80;;;;;;;22.76;30.30;100195.79;218133;1257;140319;-67
2023/05/11 07:25:24;;;;;;;2.80;2.30;;;;;;;22.79;30.68;100188.02;218977;1259;140956;-68
2023/05/11 07:30:30;;;;;;;18.60;3.30;;;;;;;22.54;30.92;100186.84;217721;1259;139147;-67
2023/05/11 07:35:33;;;;;;;3.70;2.60;;;;;;;22.48;30.53;100180.23;217944;1256;139350;-69
2023/05/11 07:40:38;;;;;;;3.20;2.30;;;;;;;22.09;30.86;100181.58;218139;1257;141650;-69
2023/05/11 07:45:41;;;;;;;9.10;3.30;;;;;;;21.95;31.55;100181.88;218014;1259;139678;-68
2023/05/11 07:50:45;;;;;;;5.70;3.50;;;;;;;22.19;31.54;100182.55;218045;1259;140220;-69
2023/05/11 07:55:49;;;;;;;2.30;2.10;;;;;;;22.52;31.07;100183.80;218736;1259;139393;-67
2023/05/11 08:00:53;;;;;;;5.50;2.70;;;;;;;22.54;30.75;100185.10;218509;1254;139105;-66
2023/05/11 08:05:55;;;;;;;3.90;3.10;;;;;;;22.57;30.75;100183.54;218167;1256;139263;-67
2023/05/11 08:10:59;;;;;;;2.60;2.40;;;;;;;22.61;30.54;100184.56;218845;1257;140154;-67
2023/05/11 08:16:02;;;;;;;3.20;2.90;;;;;;;22.47;30.34;100184.54;218073;1256;140943;-68
2023/05/11 08:21:06;;;;;;;6.70;2.60;;;;;;;22.59;30.85;100190.05;218497;1256;210796;-69
2023/05/11 08:26:09;;;;;;;8.40;3.20;;;;;;;22.55;30.77;100184.55;218164;1259;139034;-68
2023/05/11 08:31:13;;;;;;;4.90;2.40;;;;;;;22.25;30.65;100186.87;219433;1256;141278;-68
2023/05/11 08:36:20;;;;;;;12.80;3.50;;;;;;;22.05;31.33;100184.64;217779;1257;139949;-69
2023/05/11 08:41:23;;;;;;;6.30;2.80;;;;;;;22.19;30.57;100185.75;219694;1256;141258;-70
2023/05/11 08:46:29;;;;;;;4.90;2.80;;;;;;;22.20;30.31;100181.77;218816;1256;139006;-66
2023/05/11 08:51:32;;;;;;;2.10;2.00;;;;;;;22.03;30.39;100186.73;219968;1256;139965;-66
2023/05/11 08:56:36;;;;;;;5.60;3.20;;;;;;;21.58;30.45;100177.58;220574;1256;139929;-67
2023/05/11 09:01:40;;;;;;;2.50;2.30;;;;;;;21.64;31.39;100178.12;218548;1257;150620;-76
2023/05/11 09:06:43;;;;;;;6.80;3.70;;;;;;;21.91;31.56;100176.20;219210;1256;140247;-72
2023/05/11 09:11:46;;;;;;;3.10;2.80;;;;;;;22.16;31.05;100178.52;218348;1257;140442;-69
2023/05/11 09:16:50;;;;;;;4.90;2.40;;;;;;;22.44;31.38;100177.48;217842;1257;139640;-66
2023/05/11 09:21:53;;;;;;;7.00;3.00;;;;;;;22.54;30.56;100178.96;218664;1257;140261;-66
2023/05/11 09:27:08;;;;;;;3.50;2.10;;;;;;;22.58;30.35;100168.02;218768;1257;139149;-68
2023/05/11 09:32:11;;;;;;;2.10;1.90;;;;;;;22.54;30.47;100170.23;218476;1259;140653;-69
2023/05/11 09:37:17;;;;;;;4.60;2.40;;;;;;;22.10;30.23;100170.53;217661;1255;138923;-66
2023/05/11 09:42:21;;;;;;;2.80;2.30;;;;;;;21.83;30.96;100164.23;218236;1257;140148;-70
2023/05/11 09:47:24;;;;;;;5.70;2.80;;;;;;;21.85;31.29;100160.77;217742;1257;140815;-71
2023/05/11 09:52:26;;;;;;;9.40;3.20;;;;;;;21.89;31.75;100159.56;220096;1259;139341;-70
2023/05/11 09:57:31;;;;;;;3.20;2.10;;;;;;;22.20;31.75;100144.84;218642;1257;139475;-68
2023/05/11 10:02:33;;;;;;;3.50;2.90;;;;;;;22.34;31.36;100148.83;218558;1257;142091;-68
2023/05/11 10:07:37;;;;;;;7.40;3.30;;;;;;;22.54;30.86;100149.95;217781;1259;140454;-69
2023/05/11 10:12:40;;;;;;;3.20;2.30;;;;;;;22.75;30.60;100144.65;218554;1254;139100;-69
2023/05/11 10:17:43;;;;;;;3.00;2.60;;;;;;;22.80;30.44;100139.56;218965;1259;139388;-69
2023/05/11 10:22:49;;;;;;;5.40;2.50;;;;;;;22.64;31.12;100144.83;219340;1257;139538;-69
2023/05/11 10:27:53;;;;;;;;;;;;;;;22.54;30.93;100138.21;218874;1256;139307;-69
2023/05/11 10:32:57;;;;;;;6.40;2.90;;;;;;;22.32;31.15;100134.37;219103;1257;129464;-69
2023/05/11 10:38:00;;;;;;;2.70;2.50;;;;;;;22.25;30.95;100128.70;218882;1259;139406;-69
2023/05/11 10:43:14;;;;;;;2.40;2.20;;;;;;;22.26;31.26;100132.71;219720;1257;140099;-70
2023/05/11 10:48:44;;;;;;;13.50;3.20;;;;;;;22.13;30.79;100131.81;219198;1259;139157;-70
2023/05/11 10:53:57;;;;;;;3.00;2.40;;;;;;;22.39;31.20;100124.79;217983;1257;139155;-70
2023/05/11 10:59:31;;;;;;;2.50;2.00;;;;;;;22.51;30.71;100123.93;218446;1256;140729;-70
2023/05/11 11:04:49;;;;;;;1.70;1.60;;;;;;;22.74;30.57;100120.22;218553;1258;139236;-68
2023/05/11 11:10:05;;;;;;;2.50;2.20;;;;;;;22.79;30.75;100112.78;218387;1257;139386;-69
2023/05/11 11:15:08;;;;;;;8.80;2.60;;;;;;;22.54;30.62;100109.02;218164;1257;140242;-69
2023/05/11 11:20:48;;;;;;;3.40;2.70;;;;;;;22.10;30.86;100113.70;219143;1255;139626;-67
2023/05/11 11:25:53;;;;;;;1.90;1.80;;;;;;;22.41;31.32;100116.09;218281;1257;139306;-69
2023/05/11 11:31:24;;;;;;;3.90;2.50;;;;;;;22.37;31.06;100119.02;218330;1259;139455;-67
2023/05/11 11:37:05;;;;;;;3.20;2.20;;;;;;;22.13;31.27;100119.87;217910;1257;140091;-69
2023/05/11 11:42:11;;;;;;;2.30;2.10;;;;;;;22.22;31.25;100113.67;218299;1257;140493;-68
2023/05/11 11:47:16;;;;;;;4.40;2.60;;;;;;;22.25;31.57;100108.19;218408;1257;139305;-68
2023/05/11 11:52:29;;;;;;;3.20;2.90;;;;;;;22.11;31.91;100103.20;218327;1256;138900;-69
2023/05/11 11:57:32;;;;;;;3.20;1.80;;;;;;;22.02;31.96;100103.69;219134;1257;139642;-69
2023/05/11 12:02:41;;;;;;;3.60;2.60;;;;;;;22.07;31.94;100099.02;218272;1257;139914;-68
2023/05/11 12:07:46;;;;;;;6.70;2.80;;;;;;;22.11;31.82;100105.69;218563;1257;139821;-68
2023/05/11 12:12:53;;;;;;;9.00;3.10;;;;;;;22.09;31.69;100102.15;218339;1257;140318;-68
2023/05/11 12:18:01;;;;;;;10.90;2.70;;;;;;;22.04;31.76;100102.06;219263;1256;139358;-68
2023/05/11 12:23:09;;;;;;;4.80;2.80;;;;;;;21.96;31.74;100094.52;218505;1257;139012;-69
2023/05/11 12:28:11;;;;;;;3.80;3.30;;;;;;;21.71;31.62;100097.27;219265;1259;139985;-69
2023/05/11 12:33:15;;;;;;;1.90;1.60;;;;;;;21.77;31.94;100091.87;219630;1258;138963;-69
2023/05/11 12:38:19;;;;;;;2.80;2.00;;;;;;;21.91;32.10;100094.23;219067;1257;139152;-69
2023/05/11 12:43:23;;;;;;;6.30;3.00;;;;;;;21.89;31.97;100093.50;219839;1255;249086;-69
2023/05/11 12:48:25;;;;;;;3.90;2.40;;;;;;;21.95;31.71;100084.92;219682;1257;140548;-70
2023/05/11 12:53:35;;;;;;;4.70;2.90;;;;;;;22.11;31.43;100077.99;218513;1259;139281;-71
2023/05/11 12:58:40;;;;;;;3.70;2.40;;;;;;;21.59;31.21;100076.38;218830;1257;141297;-69
2023/05/11 13:03:46;;;;;;;9.20;3.50;;;;;;;21.37;31.94;100073.13;219626;1257;138957;-69
2023/05/11 13:08:50;;;;;;;10.80;3.20;;;;;;;21.69;31.65;100070.16;218539;1259;139785;-71
2023/05/11 13:13:55;;;;;;;5.90;2.60;;;;;;;21.96;30.77;100066.83;218306;1257;139529;-68
2023/05/11 13:19:06;;;;;;;2.80;2.60;;;;;;;22.00;30.90;100064.91;218680;1257;139229;-68
2023/05/11 13:24:19;;;;;;;3.60;3.00;;;;;;;22.12;30.70;100058.91;217616;1258;139392;-70
2023/05/11 13:29:23;;;;;;;3.40;2.30;;;;;;;22.12;30.67;100054.41;218183;1257;138358;-71
2023/05/11 13:34:27;;;;;;;3.30;2.80;;;;;;;22.41;30.72;100044.76;218647;1256;139230;-70
2023/05/11 13:39:30;;;;;;;7.00;2.90;;;;;;;22.46;30.99;100040.27;218253;1259;140690;-70
2023/05/11 13:44:35;;;;;;;4.70;2.60;;;;;;;22.41;30.53;100043.89;219535;1256;139659;-69
2023/05/11 13:49:38;;;;;;;3.10;2.80;;;;;;;22.39;30.88;100038.34;217845;1257;139352;-70
2023/05/11 13:54:41;;;;;;;4.70;2.40;;;;;;;22.41;31.03;100039.16;219070;1259;143711;-69
2023/05/11 13:59:45;;;;;;;2.80;2.50;;;;;;;22.59;30.43;100037.27;218313;1257;139535;-70
2023/05/11 14:04:50;;;;;;;2.80;2.50;;;;;;;22.38;29.66;100033.36;218129;1259;151279;-71
2023/05/11 14:09:52;;;;;;;4.50;2.50;;;;;;;22.31;30.11;100034.36;218610;1259;139841;-69
2023/05/11 14:14:55;;;;;;;2.90;2.50;;;;;;;22.11;30.08;100038.14;217842;1259;139424;-70
2023/05/11 14:19:57;;;;;;;4.10;2.30;;;;;;;22.14;30.21;100036.71;219137;1257;139660;-70
2023/05/11 14:25:01;;;;;;;2.90;2.70;;;;;;;22.30;30.19;100029.10;220106;1256;140001;-70
2023/05/11 14:30:05;;;;;;;3.70;2.90;;;;;;;22.44;30.23;100026.07;219392;1256;140407;-71
2023/05/11 14:35:08;;;;;;;4.90;2.80;;;;;;;22.40;30.32;100023.38;220699;1257;138760;-70
2023/05/11 14:40:12;;;;;;;5.50;2.70;;;;;;;22.46;30.23;100016.84;219116;1257;140776;-69
2023/05/11 14:45:15;;;;;;;2.80;2.30;;;;;;;22.50;30.12;100016.20;218973;1256;138437;-70
2023/05/11 14:50:19;;;;;;;3.50;3.20;;;;;;;22.50;30.18;100018.65;217791;1259;140602;-69
2023/05/11 14:55:22;;;;;;;3.30;2.90;;;;;;;22.48;30.20;100021.40;218557;1259;139834;-69
2023/05/11 15:00:24;;;;;;;6.20;2.80;;;;;;;22.39;30.04;100022.70;217707;1259;139301;-70
2023/05/11 15:05:28;;;;;;;5.80;3.50;;;;;;;21.91;30.30;100024.08;218758;1254;139896;-70
2023/05/11 15:10:32;;;;;;;3.80;3.40;;;;;;;21.41;30.48;100023.59;219528;1257;139119;-69
2023/05/11 15:15:36;;;;;;;11.10;2.70;;;;;;;21.06;30.93;100027.70;219401;1257;140377;-70
2023/05/11 15:20:41;;;;;;;6.20;3.10;;;;;;;20.74;31.23;100025.08;218624;1256;139504;-70
2023/05/11 15:25:45;;;;;;;6.10;3.50;;;;;;;20.64;31.39;100021.17;217727;1256;138819;-69
2023/05/11 15:30:47;;;;;;;3.50;2.60;;;;;;;20.69;31.58;100024.63;218004;1260;140571;-68
2023/05/11 15:35:50;;;;;;;6.50;3.00;;;;;;;20.73;31.65;100020.88;218515;1257;140059;-70
2023/05/11 15:40:53;;;;;;;3.10;2.50;;;;;;;20.76;31.73;100025.29;218061;1259;139824;-71
2023/05/11 15:45:56;;;;;;;6.30;2.50;;;;;;;20.75;31.72;100027.15;219595;1256;141028;-70
2023/05/11 15:51:02;;;;;;;13.90;3.30;;;;;;;20.73;31.76;100024.52;218361;1257;139101;-69
2023/05/11 15:56:08;;;;;;;4.60;2.60;;;;;;;20.65;31.76;100030.11;219429;1257;140624;-70
2023/05/11 16:01:11;;;;;;;9.50;3.00;;;;;;;20.58;31.74;100026.73;219604;1259;139452;-70
2023/05/11 16:06:14;;;;;;;5.80;3.00;;;;;;;20.56;31.90;100033.32;218569;1260;139105;-71
2023/05/11 16:11:17;;;;;;;7.50;3.30;;;;;;;20.44;31.90;100034.69;219738;1257;139802;-69
2023/05/11 16:16:20;;;;;;;5.80;3.30;;;;;;;20.27;31.94;100030.77;219652;1258;139341;-70
2023/05/11 16:21:23;;;;;;;10.40;3.40;;;;;;;20.14;32.12;100025.23;220373;1257;139467;-70
2023/05/11 16:26:26;;;;;;;3.40;2.80;;;;;;;20.03;32.37;100029.85;220258;1258;142249;-71
2023/05/11 16:31:29;;;;;;;5.80;3.50;;;;;;;19.93;32.52;100033.48;220258;1257;138930;-71
2023/05/11 16:36:32;;;;;;;4.10;3.00;;;;;;;19.84;32.63;100040.25;218398;1258;140207;-68
2023/05/11 16:41:34;;;;;;;3.80;2.20;;;;;;;19.72;32.68;100039.09;219539;1260;139642;-71
2023/05/11 16:46:35;;;;;;;4.40;2.90;;;;;;;19.57;32.90;100041.15;217709;1257;141117;-70
2023/05/11 16:51:39;;;;;;;7.00;3.20;;;;;;;19.42;33.20;100042.09;219180;1255;139606;-71
2023/05/11 16:56:42;;;;;;;3.10;2.80;;;;;;;19.30;33.05;100048.67;219401;1256;140084;-71
2023/05/11 17:01:45;;;;;;;7.30;3.10;;;;;;;19.17;33.25;100051.88;218660;1259;139183;-69
2023/05/11 17:06:47;;;;;;;4.70;3.10;;;;;;;19.06;33.28;100051.64;217993;1256;151113;-70
2023/05/11 17:11:50;;;;;;;5.10;3.30;;;;;;;18.90;33.69;100052.20;218429;1257;139460;-71
2023/05/11 17:16:56;;;;;;;6.80;3.30;;;;;;;18.78;33.92;100055.16;218855;1257;141288;-70
2023/05/11 17:22:00;;;;;;;5.90;3.30;;;;;;;18.67;34.18;100056.48;217925;1258;139782;-72
2023/05/11 17:27:03;;;;;;;3.10;2.80;;;;;;;18.52;34.13;100062.59;218125;1257;138908;-71
2023/05/11 17:32:08;;;;;;;2.40;2.20;;;;;;;18.35;34.17;100066.88;218396;1257;139985;-70
2023/05/11 17:37:16;;;;;;;4.30;3.20;;;;;;;18.18;34.24;100067.73;217818;1257;139218;-72
2023/05/11 17:42:37;;;;;;;3.50;3.20;;;;;;;18.00;34.41;100074.21;219883;1256;138977;-73
2023/05/11 17:47:41;;;;;;;3.80;3.40;;;;;;;17.84;34.73;100077.45;218049;1259;139465;-73
2023/05/11 17:52:45;;;;;;;6.60;2.80;;;;;;;17.69;34.72;100085.25;219265;1254;139971;-72
2023/05/11 17:57:50;;;;;;;3.40;2.90;;;;;;;17.55;34.99;100089.67;218485;1257;141012;-72
2023/05/11 18:02:53;;;;;;;3.60;2.70;;;;;;;17.39;35.29;100091.41;220600;1255;139097;-73
2023/05/11 18:07:57;;;;;;;6.20;4.00;;;;;;;17.25;35.55;100095.79;220633;1255;139722;-73
2023/05/11 18:12:59;;;;;;;11.80;8.20;;;;;;;17.14;35.58;100105.69;219739;1257;141373;-73
2023/05/11 18:18:02;;;;;;;11.60;3.90;;;;;;;17.03;35.76;100106.23;219353;1257;140118;-72
2023/05/11 18:23:04;;;;;;;7.20;3.00;;;;;;;16.89;36.02;100109.45;220263;1256;150200;-70
2023/05/11 18:28:07;;;;;;;6.00;3.20;;;;;;;16.70;36.33;100118.29;220157;1257;139431;-72
2023/05/11 18:33:13;;;;;;;5.70;2.80;;;;;;;16.52;36.74;100122.78;219617;1254;139796;-71
2023/05/11 18:38:19;;;;;;;5.00;2.90;;;;;;;16.32;36.99;100127.17;218796;1257;139906;-71
2023/05/11 18:43:22;;;;;;;5.40;3.30;;;;;;;16.14;37.46;100134.73;218326;1258;139325;-73
2023/05/11 18:48:27;;;;;;;6.50;3.70;;;;;;;15.97;37.85;100143.89;219415;1257;139624;-69
2023/05/11 18:53:28;;;;;;;15.30;3.20;;;;;;;15.75;38.56;100147.23;220532;1254;141310;-71
2023/05/11 18:58:31;;;;;;;6.10;3.30;;;;;;;15.51;38.82;100152.96;218467;1257;139638;-69
2023/05/11 19:03:35;;;;;;;3.50;2.80;;;;;;;15.30;39.19;100162.00;219646;1254;139101;-71
2023/05/11 19:08:39;;;;;;;2.60;2.40;;;;;;;15.10;39.31;100165.16;218063;1256;139711;-73
2023/05/11 19:13:44;;;;;;;5.90;3.70;;;;;;;14.91;39.72;100166.91;217811;1256;139479;-72
2023/05/11 19:18:48;;;;;;;3.60;3.20;;;;;;;14.74;40.46;100176.43;218411;1254;139205;-72
2023/05/11 19:23:53;;;;;;;6.80;3.40;;;;;;;14.59;40.64;100182.06;217919;1257;138861;-72
2023/05/11 19:28:56;;;;;;;4.50;3.10;;;;;;;14.46;40.95;100188.38;218713;1257;139477;-72
2023/05/11 19:34:01;;;;;;;6.50;3.20;;;;;;;14.31;41.47;100195.45;217943;1257;141364;-70
2023/05/11 19:39:05;;;;;;;7.60;5.00;;;;;;;14.14;41.69;100198.06;218838;1257;139689;-72
2023/05/11 19:44:08;;;;;;;8.40;5.60;;;;;;;14.00;42.07;100199.58;220112;1255;139470;-73
2023/05/11 19:49:16;;;;;;;4.60;4.20;;;;;;;13.86;42.46;100202.95;218253;1254;139834;-72
2023/05/11 19:54:21;;;;;;;9.80;4.00;;;;;;;13.73;42.34;100203.78;220219;1254;139416;-72
2023/05/11 19:59:31;;;;;;;2.80;2.60;;;;;;;13.61;42.56;100198.98;219851;1255;139818;-71
2023/05/11 20:04:35;;;;;;;6.70;3.40;;;;;;;13.48;43.07;100198.02;219305;1254;139870;-71
2023/05/11 20:09:38;;;;;;;9.20;4.40;;;;;;;13.41;43.15;100196.08;220764;1254;140330;-71
2023/05/11 20:14:41;;;;;;;12.70;6.50;;;;;;;13.33;43.27;100198.61;219384;1255;140376;-70
2023/05/11 20:19:47;;;;;;;10.10;4.90;;;;;;;13.27;43.31;100200.52;219900;1255;140531;-70
2023/05/11 20:24:51;;;;;;;25.80;5.40;;;;;;;13.19;43.64;100205.67;219499;1256;141549;-66
2023/05/11 20:29:55;;;;;;;6.50;4.20;;;;;;;13.09;43.52;100204.10;217744;1256;139801;-69
2023/05/11 20:34:58;;;;;;;5.50;5.00;;;;;;;13.00;43.72;100207.45;218770;1256;139301;-69
2023/05/11 20:40:05;;;;;;;6.90;4.20;;;;;;;12.93;44.06;100210.79;218177;1259;139116;-67
2023/05/11 20:45:11;;;;;;;11.60;4.20;;;;;;;12.79;44.06;100210.05;219675;1255;140009;-69
2023/05/11 20:50:15;;;;;;;5.60;4.20;;;;;;;12.69;43.97;100213.27;218079;1256;141279;-67
2023/05/11 20:55:19;;;;;;;11.40;3.30;;;;;;;12.65;43.99;100207.25;218248;1257;139054;-70
2023/05/11 21:00:26;;;;;;;4.70;3.10;;;;;;;12.62;43.84;100206.79;217983;1256;139390;-69
2023/05/11 21:05:30;;;;;;;4.90;3.90;;;;;;;12.59;44.03;100212.72;218457;1256;139235;-68
2023/05/11 21:10:34;;;;;;;4.80;3.50;;;;;;;12.55;44.06;100213.02;218291;1256;139730;-71
2023/05/11 21:15:36;;;;;;;5.40;4.00;;;;;;;12.46;44.22;100216.60;218346;1256;138991;-73
2023/05/11 21:20:40;;;;;;;7.20;4.10;;;;;;;12.39;43.96;100217.47;217922;1256;140405;-67
2023/05/11 21:25:43;;;;;;;4.80;3.10;;;;;;;12.34;43.93;100222.05;218302;1257;139889;-67
2023/05/11 21:30:47;;;;;;;4.80;3.00;;;;;;;12.32;43.61;100223.94;218487;1256;138645;-67
2023/05/11 21:35:52;;;;;;;4.40;3.20;;;;;;;12.39;43.76;100220.61;219037;1256;139416;-68
2023/05/11 21:40:55;;;;;;;3.60;3.20;;;;;;;12.46;43.52;100220.06;219277;1256;139422;-66
2023/05/11 21:45:59;;;;;;;3.50;3.20;;;;;;;12.51;43.37;100223.06;218599;1256;139608;-67
2023/05/11 21:51:02;;;;;;;5.70;3.10;;;;;;;12.54;43.09;100224.17;218455;1257;139033;-66
2023/05/11 21:56:08;;;;;;;14.00;3.70;;;;;;;12.54;43.17;100224.81;217723;1257;141435;-70
2023/05/11 22:01:11;;;;;;;5.70;3.20;;;;;;;12.50;42.94;100225.55;218172;1259;139194;-70
2023/05/11 22:06:14;;;;;;;2.70;2.40;;;;;;;12.43;43.15;100230.70;220766;1255;140423;-67
2023/05/11 22:11:18;;;;;;;4.60;2.90;;;;;;;12.41;43.00;100232.58;218598;1256;139524;-69
2023/05/11 22:16:21;;;;;;;2.70;2.50;;;;;;;12.41;43.05;100240.60;219554;1256;139774;-69
2023/05/11 22:21:27;;;;;;;4.20;3.40;;;;;;;12.39;43.00;100245.48;218141;1256;140968;-67
2023/05/11 22:26:30;;;;;;;5.30;3.60;;;;;;;12.37;42.91;100247.41;218406;1257;161989;-68
2023/05/11 22:31:34;;;;;;;5.00;3.40;;;;;;;12.35;42.86;100249.13;218572;1257;139071;-68
2023/05/11 22:36:37;;;;;;;5.00;3.30;;;;;;;12.32;43.07;100255.56;218425;1256;139869;-67
2023/05/11 22:41:40;;;;;;;7.70;3.30;;;;;;;12.26;42.93;100254.06;217758;1255;139215;-67
2023/05/11 22:46:44;;;;;;;4.70;3.10;;;;;;;12.21;42.97;100255.16;218748;1255;139652;-67
2023/05/11 22:51:48;;;;;;;3.90;3.00;;;;;;;12.12;43.06;100252.14;218056;1255;139141;-66
2023/05/11 22:56:51;;;;;;;4.10;3.60;;;;;;;12.05;43.24;100253.90;218738;1256;221224;-69
2023/05/11 23:02:00;;;;;;;4.20;3.20;;;;;;;11.98;43.52;100250.89;218462;1254;138981;-68
2023/05/11 23:07:06;;;;;;;2.30;2.10;;;;;;;11.93;43.45;100245.11;219033;1257;140037;-67